createdAt,value
2022-08-10T00:03:00.467Z,18.63
2022-08-10T00:06:03.689Z,18.62
2022-08-10T00:09:05.419Z,18.79
2022-08-10T00:12:07.224Z,18.75
2022-08-10T00:15:09.686Z,18.63
2022-08-10T00:18:11.346Z,18.47
2022-08-10T00:21:34.373Z,18.43
2022-08-10T00:24:39.117Z,18.53
2022-08-10T00:27:52.231Z,18.55
2022-08-10T00:31:04.064Z,18.44
2022-08-10T00:34:05.709Z,18.51
2022-08-10T00:37:08.753Z,18.47
2022-08-10T00:40:11.242Z,18.47
2022-08-10T00:43:12.917Z,18.44
2022-08-10T00:46:14.658Z,18.03
2022-08-10T00:49:16.417Z,18.08
2022-08-10T00:52:20.451Z,18.13
2022-08-10T00:55:22.166Z,18.19
2022-08-10T00:58:23.817Z,18.10
2022-08-10T01:02:10.741Z,18.17
2022-08-10T01:04:59.592Z,18.21
2022-08-10T01:08:20.582Z,18.26
2022-08-10T01:12:31.388Z,18.29
2022-08-10T01:14:55.341Z,18.40
2022-08-10T01:18:00.784Z,18.42
2022-08-10T01:21:31.005Z,18.15
2022-08-10T01:24:45.370Z,18.20
2022-08-10T01:27:53.943Z,18.33
2022-08-10T01:31:00.121Z,18.28
2022-08-10T01:34:03.733Z,18.15
2022-08-10T01:37:08.153Z,18.31
2022-08-10T01:40:10.719Z,18.25
2022-08-10T01:43:16.187Z,18.28
2022-08-10T01:46:19.454Z,18.29
2022-08-10T01:49:22.377Z,18.18
2022-08-10T01:52:25.811Z,18.20
2022-08-10T01:55:28.258Z,18.27
2022-08-10T01:58:31.081Z,18.17
2022-08-10T02:01:37.915Z,18.19
2022-08-10T02:04:41.612Z,18.27
2022-08-10T02:07:44.028Z,18.25
2022-08-10T02:10:46.428Z,18.25
2022-08-10T02:13:48.210Z,18.15
2022-08-10T02:16:51.947Z,18.15
2022-08-10T02:19:54.347Z,18.16
2022-08-10T02:22:56.791Z,18.15
2022-08-10T02:26:00.325Z,18.16
2022-08-10T02:29:02.260Z,18.01
2022-08-10T02:32:06.518Z,18.08
2022-08-10T02:35:18.621Z,17.88
2022-08-10T02:38:59.235Z,17.84
2022-08-10T02:42:18.794Z,17.90
2022-08-10T02:45:29.279Z,17.94
2022-08-10T02:48:37.597Z,17.98
2022-08-10T02:52:06.206Z,17.97
2022-08-10T02:55:17.025Z,17.70
2022-08-10T02:58:22.746Z,17.78
2022-08-10T03:01:28.758Z,17.86
2022-08-10T03:04:56.203Z,17.98
2022-08-10T03:08:00.042Z,17.95
2022-08-10T03:11:03.507Z,17.94
2022-08-10T03:14:06.659Z,17.98
2022-08-10T03:17:09.305Z,17.97
2022-08-10T03:20:37.686Z,17.85
2022-08-10T03:23:34.932Z,17.91
2022-08-10T03:26:37.287Z,17.91
2022-08-10T03:30:30.001Z,17.85
2022-08-10T03:33:02.650Z,17.70
2022-08-10T03:36:44.155Z,17.77
2022-08-10T03:39:28.148Z,17.74
2022-08-10T03:42:31.375Z,17.72
2022-08-10T03:45:54.537Z,17.64
2022-08-10T03:48:57.851Z,17.55
2022-08-10T03:52:04.244Z,17.50
2022-08-10T03:55:06.068Z,17.35
2022-08-10T03:58:07.967Z,17.50
2022-08-10T04:01:10.058Z,17.40
2022-08-10T04:04:12.879Z,17.05
2022-08-10T04:07:18.444Z,17.27
2022-08-10T04:10:20.097Z,17.17
2022-08-10T04:13:21.730Z,17.08
2022-08-10T04:16:23.343Z,17.06
2022-08-10T04:19:25.512Z,17.15
2022-08-10T04:22:29.063Z,16.97
2022-08-10T04:25:30.913Z,16.97
2022-08-10T04:28:33.000Z,16.93
2022-08-10T04:31:36.112Z,16.92
2022-08-10T04:34:40.625Z,16.89
2022-08-10T04:37:46.851Z,16.74
2022-08-10T04:40:49.544Z,16.83
2022-08-10T04:43:51.224Z,16.73
2022-08-10T04:46:57.810Z,16.87
2022-08-10T04:50:00.994Z,16.96
2022-08-10T04:53:05.488Z,16.96
2022-08-10T04:56:07.450Z,17.01
2022-08-10T04:59:09.844Z,17.12
2022-08-10T05:02:22.415Z,17.07
2022-08-10T05:05:33.209Z,17.11
2022-08-10T05:08:36.256Z,17.06
2022-08-10T05:11:37.951Z,17.18
2022-08-10T05:14:39.617Z,17.00
2022-08-10T05:18:08.726Z,16.78
2022-08-10T05:21:03.898Z,17.04
2022-08-10T05:24:07.443Z,16.90
2022-08-10T05:27:09.912Z,16.94
2022-08-10T05:30:13.373Z,17.10
2022-08-10T05:33:15.038Z,16.98
2022-08-10T05:36:17.256Z,17.00
2022-08-10T05:39:25.230Z,16.99
2022-08-10T05:42:32.412Z,17.05
2022-08-10T05:45:34.122Z,17.16
2022-08-10T05:49:00.522Z,17.32
2022-08-10T05:52:03.667Z,17.36
2022-08-10T05:55:07.572Z,17.27
2022-08-10T05:58:09.466Z,17.16
2022-08-10T06:01:12.875Z,17.27
2022-08-10T06:04:17.912Z,17.38
2022-08-10T06:07:21.912Z,17.50
2022-08-10T06:10:32.804Z,17.31
2022-08-10T06:13:59.652Z,17.41
2022-08-10T06:16:59.222Z,17.23
2022-08-10T06:20:01.268Z,17.37
2022-08-10T06:23:03.895Z,17.38
2022-08-10T06:26:11.887Z,17.36
2022-08-10T06:29:16.771Z,17.48
2022-08-10T06:32:18.835Z,17.67
2022-08-10T06:35:20.757Z,17.69
2022-08-10T06:38:23.968Z,17.77
2022-08-10T06:42:01.342Z,17.80
2022-08-10T06:44:55.609Z,17.94
2022-08-10T06:48:00.350Z,17.86
2022-08-10T06:51:03.413Z,17.85
2022-08-10T06:54:06.832Z,17.95
2022-08-10T06:57:18.671Z,18.00
2022-08-10T07:00:20.951Z,18.04
2022-08-10T07:03:26.343Z,18.15
2022-08-10T07:06:28.582Z,18.12
2022-08-10T07:09:31.946Z,18.05
2022-08-10T07:12:37.000Z,18.24
2022-08-10T07:15:59.661Z,18.11
2022-08-10T07:19:01.407Z,18.17
2022-08-10T07:22:03.676Z,18.43
2022-08-10T07:25:06.896Z,18.36
2022-08-10T07:28:10.837Z,18.45
2022-08-10T07:31:54.487Z,18.46
2022-08-10T07:34:36.101Z,18.41
2022-08-10T07:37:38.356Z,18.43
2022-08-10T07:40:42.486Z,18.52
2022-08-10T07:43:46.824Z,18.61
2022-08-10T07:46:50.353Z,18.76
2022-08-10T07:49:52.439Z,18.76
2022-08-10T07:52:55.831Z,18.88
2022-08-10T07:56:04.731Z,19.10
2022-08-10T07:59:17.522Z,19.12
2022-08-10T08:02:23.545Z,19.02
2022-08-10T08:05:55.075Z,19.13
2022-08-10T08:08:48.680Z,19.11
2022-08-10T08:11:51.631Z,19.03
2022-08-10T08:14:55.622Z,19.06
2022-08-10T08:18:00.725Z,19.07
2022-08-10T08:21:03.091Z,19.10
2022-08-10T08:24:32.278Z,19.27
2022-08-10T08:27:36.182Z,19.53
2022-08-10T08:30:48.810Z,19.52
2022-08-10T08:33:51.103Z,19.47
2022-08-10T08:36:57.333Z,19.70
2022-08-10T08:40:01.882Z,19.66
2022-08-10T08:43:22.196Z,19.67
2022-08-10T08:46:40.589Z,20.00
2022-08-10T08:50:07.585Z,19.92
2022-08-10T08:53:21.861Z,20.29
2022-08-10T08:56:28.610Z,20.07
2022-08-10T08:59:37.331Z,20.19
2022-08-10T09:02:55.118Z,20.12
2022-08-10T09:06:04.267Z,20.20
2022-08-10T09:09:15.737Z,20.29
2022-08-10T09:12:26.638Z,20.38
2022-08-10T09:15:39.596Z,20.46
2022-08-10T09:18:53.220Z,20.57
2022-08-10T09:22:13.387Z,20.58
2022-08-10T09:25:21.970Z,20.71
2022-08-10T09:28:26.855Z,20.80
2022-08-10T09:31:35.758Z,20.74
2022-08-10T09:36:20.697Z,20.94
2022-08-10T09:38:18.060Z,21.04
2022-08-10T09:41:25.209Z,21.02
2022-08-10T09:44:32.619Z,21.01
2022-08-10T09:48:01.167Z,21.25
2022-08-10T09:54:36.074Z,21.35
2022-08-10T09:57:46.059Z,21.36
2022-08-10T10:00:52.812Z,21.18
2022-08-10T10:03:59.706Z,21.20
2022-08-10T10:07:05.621Z,21.26
2022-08-10T10:10:09.249Z,21.37
2022-08-10T10:13:17.504Z,21.61
2022-08-10T10:16:37.008Z,21.68
2022-08-10T10:19:48.733Z,21.81
2022-08-10T10:22:56.603Z,21.86
2022-08-10T10:26:15.902Z,21.69
2022-08-10T10:29:57.193Z,21.88
2022-08-10T10:32:57.177Z,21.71
2022-08-10T10:35:59.652Z,21.78
2022-08-10T10:39:02.876Z,21.93
2022-08-10T10:42:14.750Z,21.83
2022-08-10T10:45:28.849Z,22.18
2022-08-10T10:48:36.331Z,22.26
2022-08-10T10:51:41.574Z,22.51
2022-08-10T10:54:50.490Z,22.63
2022-08-10T10:57:58.395Z,22.63
2022-08-10T11:01:06.152Z,22.74
2022-08-10T11:04:14.443Z,22.98
2022-08-10T11:07:22.886Z,22.84
2022-08-10T11:10:38.560Z,22.92
2022-08-10T11:14:24.895Z,22.93
2022-08-10T11:17:22.329Z,23.00
2022-08-10T11:20:26.458Z,23.09
2022-08-10T11:23:31.678Z,23.06
2022-08-10T11:26:36.637Z,22.79
2022-08-10T11:29:42.589Z,23.07
2022-08-10T11:32:54.836Z,22.95
2022-08-10T11:36:00.225Z,22.75
2022-08-10T11:39:18.946Z,23.08
2022-08-10T11:42:33.425Z,23.30
2022-08-10T11:45:51.368Z,23.32
2022-08-10T11:49:03.547Z,23.26
2022-08-10T11:52:08.941Z,23.29
2022-08-10T11:55:12.868Z,23.18
2022-08-10T11:58:21.264Z,23.46
2022-08-10T12:01:26.417Z,23.52
2022-08-10T12:04:28.970Z,23.42
2022-08-10T12:08:54.850Z,23.48
2022-08-10T12:10:54.338Z,23.32
2022-08-10T12:14:20.691Z,23.52
2022-08-10T12:17:25.172Z,23.79
2022-08-10T12:20:28.930Z,23.69
2022-08-10T12:23:39.286Z,23.76
2022-08-10T12:26:44.978Z,23.99
2022-08-10T12:29:50.586Z,23.86
2022-08-10T12:32:56.917Z,24.01
2022-08-10T12:36:17.878Z,24.20
2022-08-10T12:39:22.174Z,23.93
2022-08-10T12:42:38.715Z,23.78
2022-08-10T12:45:50.813Z,24.21
2022-08-10T12:48:56.989Z,24.18
2022-08-10T12:52:03.235Z,24.37
2022-08-10T12:55:05.372Z,24.63
2022-08-10T12:58:58.964Z,24.73
2022-08-10T13:02:10.427Z,24.87
2022-08-10T13:04:55.911Z,24.94
2022-08-10T13:08:03.723Z,24.99
2022-08-10T13:12:39.149Z,24.74
2022-08-10T13:14:48.006Z,24.68
2022-08-10T13:17:53.176Z,25.02
2022-08-10T13:21:00.175Z,25.11
2022-08-10T13:24:05.329Z,25.12
2022-08-10T13:27:24.706Z,25.35
2022-08-10T13:30:33.657Z,25.47
2022-08-10T13:34:39.448Z,25.72
2022-08-10T13:37:09.301Z,25.31
2022-08-10T13:40:11.586Z,25.16
2022-08-10T13:43:15.513Z,25.02
2022-08-10T13:46:22.243Z,25.27
2022-08-10T13:49:27.235Z,25.35
2022-08-10T13:52:29.670Z,25.64
2022-08-10T13:55:53.420Z,25.54
2022-08-10T13:58:53.832Z,25.86
2022-08-10T14:01:56.221Z,25.74
2022-08-10T14:04:59.776Z,25.82
2022-08-10T14:08:02.740Z,25.86
2022-08-10T14:11:10.936Z,25.99
2022-08-10T14:14:15.075Z,26.04
2022-08-10T14:17:18.877Z,25.93
2022-08-10T14:20:26.424Z,25.41
2022-08-10T14:23:28.048Z,25.54
2022-08-10T14:26:30.291Z,25.61
2022-08-10T14:29:33.227Z,25.58
2022-08-10T14:32:41.824Z,25.63
2022-08-10T14:36:21.464Z,25.77
2022-08-10T14:39:08.755Z,26.03
2022-08-10T14:42:24.103Z,26.19
2022-08-10T14:45:30.639Z,26.38
2022-08-10T14:48:33.873Z,26.60
2022-08-10T14:51:44.306Z,26.78
2022-08-10T14:54:48.787Z,26.67
2022-08-10T14:58:16.944Z,26.48
2022-08-10T15:01:17.826Z,26.19
2022-08-10T15:04:22.903Z,26.62
2022-08-10T15:07:27.550Z,26.82
2022-08-10T15:10:29.419Z,26.85
2022-08-10T15:13:34.407Z,26.89
2022-08-10T15:16:37.263Z,26.26
2022-08-10T15:20:04.311Z,26.58
2022-08-10T15:23:06.073Z,26.41
2022-08-10T15:26:11.017Z,26.77
2022-08-10T15:29:23.762Z,27.03
2022-08-10T15:32:33.522Z,27.25
2022-08-10T15:35:36.559Z,27.35
2022-08-10T15:38:41.626Z,27.56
2022-08-10T15:41:57.621Z,27.71
2022-08-10T15:45:01.615Z,27.68
2022-08-10T15:48:05.901Z,27.89
2022-08-10T15:51:12.525Z,27.75
2022-08-10T15:54:33.600Z,26.94
2022-08-10T15:57:39.952Z,27.75
2022-08-10T16:00:45.885Z,27.65
2022-08-10T16:03:54.608Z,28.02
2022-08-10T16:06:59.197Z,27.65
2022-08-10T16:10:23.637Z,27.84
2022-08-10T16:13:50.133Z,28.05
2022-08-10T16:16:55.199Z,28.42
2022-08-10T16:19:57.714Z,28.51
2022-08-10T16:23:00.683Z,28.76
2022-08-10T16:26:15.149Z,28.89
2022-08-10T16:29:19.894Z,28.58
2022-08-10T16:32:22.240Z,28.75
2022-08-10T16:35:24.136Z,28.86
2022-08-10T16:38:26.304Z,28.85
2022-08-10T16:42:04.155Z,28.84
2022-08-10T16:44:52.997Z,27.95
2022-08-10T16:47:56.037Z,27.56
2022-08-10T16:50:59.382Z,28.04
2022-08-10T16:54:01.694Z,28.36
2022-08-10T16:57:05.708Z,28.86
2022-08-10T17:00:08.188Z,29.30
2022-08-10T17:04:04.437Z,29.52
2022-08-10T17:06:35.146Z,29.67
2022-08-10T17:09:38.532Z,29.54
2022-08-10T17:12:43.033Z,29.83
2022-08-10T17:15:49.052Z,30.09
2022-08-10T17:18:51.382Z,30.11
2022-08-10T17:21:55.297Z,30.14
2022-08-10T17:24:59.898Z,30.14
2022-08-10T17:28:09.677Z,29.96
2022-08-10T17:31:51.587Z,29.93
2022-08-10T17:34:40.339Z,29.90
2022-08-10T17:37:44.765Z,29.69
2022-08-10T17:40:48.162Z,30.04
2022-08-10T17:44:02.509Z,29.68
2022-08-10T17:47:10.934Z,29.66
2022-08-10T17:50:13.293Z,29.53
2022-08-10T17:53:16.220Z,29.14
2022-08-10T17:56:19.628Z,28.99
2022-08-10T17:59:24.595Z,28.08
2022-08-10T18:02:27.292Z,27.51
2022-08-10T18:05:30.783Z,27.04
2022-08-10T18:08:34.404Z,26.73
2022-08-10T18:11:41.622Z,26.43
2022-08-10T18:14:45.414Z,26.39
2022-08-10T18:17:48.834Z,26.05
2022-08-10T18:20:51.853Z,26.03
2022-08-10T18:23:54.134Z,25.79
2022-08-10T18:26:56.590Z,25.66
2022-08-10T18:30:03.714Z,25.63
2022-08-10T18:33:09.281Z,25.38
2022-08-10T18:36:11.981Z,25.31
2022-08-10T18:39:14.808Z,25.31
2022-08-10T18:42:19.567Z,24.95
2022-08-10T18:45:24.274Z,24.62
2022-08-10T18:48:33.173Z,24.31
2022-08-10T18:51:46.688Z,24.46
2022-08-10T18:54:49.864Z,24.41
2022-08-10T18:58:12.529Z,24.19
2022-08-10T19:01:32.429Z,24.14
2022-08-10T19:04:43.441Z,24.02
2022-08-10T19:08:04.388Z,23.93
2022-08-10T19:11:11.766Z,23.90
2022-08-10T19:14:16.434Z,23.90
2022-08-10T19:17:23.777Z,23.65
2022-08-10T19:20:30.731Z,23.66
2022-08-10T19:23:37.849Z,23.57
2022-08-10T19:26:45.956Z,23.42
2022-08-10T19:30:08.860Z,23.35
2022-08-10T19:33:22.286Z,23.21
2022-08-10T19:36:29.596Z,22.99
2022-08-10T19:39:50.356Z,23.06
2022-08-10T19:42:56.187Z,23.07
2022-08-10T19:46:03.215Z,22.77
2022-08-10T19:49:13.221Z,22.88
2022-08-10T19:52:19.388Z,22.91
2022-08-10T19:55:25.386Z,22.80
2022-08-10T19:58:32.519Z,22.67
2022-08-10T20:01:55.287Z,22.75
2022-08-10T20:05:02.859Z,22.81
2022-08-10T20:08:07.556Z,22.80
2022-08-10T20:11:11.184Z,22.60
2022-08-10T20:14:36.032Z,22.45
2022-08-10T20:17:51.397Z,22.40
2022-08-10T20:20:59.472Z,22.39
2022-08-10T20:24:04.398Z,22.24
2022-08-10T20:27:59.441Z,22.29
2022-08-10T20:30:34.655Z,22.18
2022-08-10T20:33:40.522Z,22.21
2022-08-10T20:36:48.253Z,22.15
2022-08-10T20:39:55.434Z,22.07
2022-08-10T20:43:03.613Z,21.97
2022-08-10T20:46:09.478Z,22.05
2022-08-10T20:49:16.172Z,22.01
2022-08-10T20:52:20.820Z,21.89
2022-08-10T20:55:23.304Z,21.73
2022-08-10T20:58:37.870Z,21.71
2022-08-10T21:02:06.229Z,21.53
2022-08-10T21:05:15.873Z,21.60
2022-08-10T21:08:22.827Z,21.65
2022-08-10T21:11:28.499Z,21.58
2022-08-10T21:17:39.007Z,21.50
2022-08-10T21:20:54.113Z,21.32
2022-08-10T21:24:01.595Z,21.33
2022-08-10T21:27:12.955Z,21.27
2022-08-10T21:30:17.373Z,21.29
2022-08-10T21:33:25.462Z,21.25
2022-08-10T21:36:30.656Z,21.29
2022-08-10T21:39:44.349Z,21.27
2022-08-10T21:42:49.728Z,21.29
2022-08-10T21:45:59.161Z,21.08
2022-08-10T21:49:03.747Z,21.01
2022-08-10T21:52:09.289Z,21.09
2022-08-10T21:55:21.651Z,20.91
2022-08-10T21:58:27.509Z,20.70
2022-08-10T22:01:39.161Z,20.63
2022-08-10T22:04:45.509Z,20.59
2022-08-10T22:07:50.497Z,20.53
2022-08-10T22:10:56.398Z,20.34
2022-08-10T22:14:01.732Z,20.46
2022-08-10T22:17:06.899Z,20.34
2022-08-10T22:20:31.235Z,20.37
2022-08-10T22:23:43.145Z,20.40
2022-08-10T22:27:01.266Z,20.40
2022-08-10T22:30:04.176Z,20.22
2022-08-10T22:33:23.791Z,19.92
2022-08-10T22:36:43.326Z,20.00
2022-08-10T22:40:07.208Z,20.06
2022-08-10T22:43:35.460Z,20.18
2022-08-10T22:46:40.832Z,20.08
2022-08-10T22:49:42.438Z,20.01
2022-08-10T22:53:01.898Z,19.94
2022-08-10T22:56:06.093Z,19.86
2022-08-10T22:59:09.880Z,19.92
2022-08-10T23:02:13.963Z,19.88
2022-08-10T23:05:16.732Z,19.73
2022-08-10T23:08:30.487Z,19.81
2022-08-10T23:11:35.625Z,19.73
2022-08-10T23:14:41.561Z,19.68
2022-08-10T23:18:03.186Z,19.61
2022-08-10T23:21:06.517Z,19.69
2022-08-10T23:24:09.336Z,19.71
2022-08-10T23:27:13.245Z,19.70
2022-08-10T23:30:36.291Z,19.65
2022-08-10T23:33:38.864Z,19.53
2022-08-10T23:36:41.172Z,19.42
2022-08-10T23:39:44.448Z,19.35
2022-08-10T23:42:48.646Z,19.05
2022-08-10T23:45:54.423Z,19.14
2022-08-10T23:48:58.370Z,19.13
2022-08-10T23:52:00.735Z,19.22
2022-08-10T23:55:04.758Z,19.20
2022-08-10T23:58:07.357Z,19.13
